Southern Ontario METAR Reports

CYSN - St.Catharines
Updated: 08/16/2017 5:00pm
Few Clouds
Few Clouds
 Wind from NNE
Wind: NNE 11 km/h
Temperature: 24°C
Dew Point: 17°C
Humidity: 65%
Barometer: 1017.3 hPa
Clouds: Few Clouds
Visibility: 24 km
Cloud details: Few Clouds 914 m
Few Clouds 7620 m
2017/08/16 21:00 CYSN 162100Z 02006KT 360V090 15SM FEW030 FEW250 24/17 A3004 RMK CU1CI1 CU TR CI TR SLP175 DENSITY ALT 1300FT
CYHM - Hamilton
Updated: 08/16/2017 5:00pm
Partly cloudy
Partly cloudy
 Wind from E
Wind: E 9 km/h
Temperature: 24°C
Dew Point: 17°C
Humidity: 65%
Barometer: 1018.3 hPa
Clouds: Partly cloudy
Visibility: 19 km
Cloud details: Few Clouds 914 m
Few Clouds 1372 m
Partly cloudy 7620 m
2017/08/16 21:00 CYHM 162100Z 08005KT 050V120 12SM FEW030TCU FEW045 SCT250 24/17 A3007 RMK TCU1SC1CI2 CONTRAILS SLP183 DENSITY ALT 1900FT
 
CYYZ - Toronto
Updated: 08/16/2017 5:00pm
Few Clouds
Few Clouds
 Wind from SSE
Wind: SSE 15 km/h
Temperature: 22°C
Dew Point: 16°C
Humidity: 69%
Barometer: 1017.9 hPa
Clouds: Few Clouds
Visibility: 24 km
Cloud details: Few Clouds 1829 m
Few Clouds 7620 m
2017/08/16 21:00 CYYZ 162100Z 15008KT 15SM FEW060 FEW250 22/16 A3006 RMK SC1CI1 SLP180 DENSITY ALT 1400FT
CYKF - Waterloo
Updated: 08/16/2017 5:00pm
Overcast
Overcast
 Wind from ESE
Wind: ESE 13 km/h
Temperature: 23°C
Dew Point: 18°C
Humidity: 74%
Barometer: 1017.9 hPa
Clouds: Overcast
Visibility: 14 km
Cloud details: Mostly cloudy 1676 m
Overcast 2103 m
2017/08/16 21:00 CYKF 162100Z AUTO 12007KT 9SM BKN055 OVC069 23/18 A3006 RMK SLP180 DENSITY ALT 2000FT
 
CYXU - London
Updated: 08/16/2017 5:00pm
Few Clouds
Few Clouds
 Wind from NE
Wind: NE 7 km/h
Temperature: 26°C
Dew Point: 14°C
Humidity: 48%
Barometer: 1017.6 hPa
Clouds: Few Clouds
Visibility: 24 km
Cloud details: Few Clouds 1219 m
2017/08/16 21:00 CYXU 162100Z 05004KT 340V080 15SM FEW040 26/14 A3005 RMK CU2 SLP175 DENSITY ALT 2300FT
CYQG - Windsor
Updated: 08/16/2017 5:00pm
Partly cloudy
Partly cloudy
 Wind from ESE
Wind: ESE 17 km/h
Temperature: 26°C
Dew Point: 15°C
Humidity: 51%
Barometer: 1016.6 hPa
Clouds: Partly cloudy
Visibility: 24 km
Cloud details: Few Clouds 1920 m
Partly cloudy 8230 m
2017/08/16 21:00 CYQG 162100Z 12009KT 15SM FEW063 SCT270 26/15 A3002 RMK CU2CI1 SLP165 DENSITY ALT 2000FT
 
CYZR - Sarnia
Updated: 08/16/2017 5:00pm
Clear
Clear
 Wind from NE
Wind: NE 17 km/h
Temperature: 25°C
Dew Point: 16°C
Humidity: 57%
Barometer: 1017.3 hPa
Clouds: Clear
Visibility: 14 km
2017/08/16 21:00 CYZR 162100Z AUTO 04009KT 9SM CLR 25/16 A3004 RMK SLP172 DENSITY ALT 1700FT
CYVV - Wiarton
Updated: 08/16/2017 5:00pm
Few Clouds
Few Clouds
 Wind from NNE
Wind: NNE 11 km/h
Temperature: 22°C
Dew Point: 15°C
Humidity: 65%
Barometer: 1018.3 hPa
Clouds: Few Clouds
Visibility: 24 km
Cloud details: Few Clouds 914 m
Few Clouds 7620 m
2017/08/16 21:00 CYVV 162100Z 02006KT 15SM FEW030 FEW250 22/15 A3007 RMK CU1CC1 CU TR SLP183 DENSITY ALT 1600FT
 
CYPQ - Peterborough
Updated: 08/16/2017 5:00pm
Clear
Clear
 Wind from WNW
Wind: WNW 9 km/h
Temperature: 24°C
Dew Point: 12°C
Humidity: 47%
Barometer: 1017.9 hPa
Clouds: Clear
Visibility: 14 km
2017/08/16 21:00 CYPQ 162100Z AUTO 29005KT 260V340 9SM CLR 24/12 A3006 RMK SLP181 DENSITY ALT 1600FT
CYTR - Trenton
Updated: 08/16/2017 5:00pm
Partly cloudy
Partly cloudy
 Wind from SW
Wind: SW 17 km/h
Temperature: 22°C
Dew Point: 13°C
Humidity: 57%
Barometer: 1017.6 hPa
Clouds: Partly cloudy
Visibility: 24 km
Cloud details: Few Clouds 1768 m
Partly cloudy 7620 m
2017/08/16 21:00 CYTR 162100Z 22009KT 15SM FEW058 SCT250 22/13 A3005 RMK CU1CI2 SLP178